sensor_id;sensor_type;location;lat;lon;timestamp;P1;durP1;ratioP1;P2;durP2;ratioP2
41739;SDS011;27422;52.444;13.300;2022-08-19T00:01:38;11.32;;;9.45;;
41739;SDS011;27422;52.444;13.300;2022-08-19T00:04:06;11.20;;;9.30;;
41739;SDS011;27422;52.444;13.300;2022-08-19T00:06:33;10.80;;;9.70;;
41739;SDS011;27422;52.444;13.300;2022-08-19T00:09:02;11.60;;;9.35;;
41739;SDS011;27422;52.444;13.300;2022-08-19T00:11:31;11.30;;;9.68;;
41739;SDS011;27422;52.444;13.300;2022-08-19T00:13:57;11.45;;;9.68;;
41739;SDS011;27422;52.444;13.300;2022-08-19T00:16:24;11.05;;;9.73;;
41739;SDS011;27422;52.444;13.300;2022-08-19T00:18:50;12.10;;;9.63;;
41739;SDS011;27422;52.444;13.300;2022-08-19T00:21:15;12.27;;;9.82;;
41739;SDS011;27422;52.444;13.300;2022-08-19T00:23:42;16.40;;;9.57;;
41739;SDS011;27422;52.444;13.300;2022-08-19T00:26:09;11.80;;;9.70;;
41739;SDS011;27422;52.444;13.300;2022-08-19T00:28:37;12.95;;;10.75;;
41739;SDS011;27422;52.444;13.300;2022-08-19T00:31:06;11.68;;;9.90;;
41739;SDS011;27422;52.444;13.300;2022-08-19T00:33:32;12.57;;;10.60;;
41739;SDS011;27422;52.444;13.300;2022-08-19T00:36:03;12.07;;;10.25;;
41739;SDS011;27422;52.444;13.300;2022-08-19T00:38:33;11.52;;;9.77;;
41739;SDS011;27422;52.444;13.300;2022-08-19T00:41:00;12.55;;;9.23;;
41739;SDS011;27422;52.444;13.300;2022-08-19T00:43:26;12.40;;;9.98;;
41739;SDS011;27422;52.444;13.300;2022-08-19T00:45:52;12.43;;;10.90;;
41739;SDS011;27422;52.444;13.300;2022-08-19T00:48:20;11.90;;;10.32;;
41739;SDS011;27422;52.444;13.300;2022-08-19T00:50:46;12.00;;;10.30;;
41739;SDS011;27422;52.444;13.300;2022-08-19T00:53:13;12.55;;;10.15;;
41739;SDS011;27422;52.444;13.300;2022-08-19T00:55:42;13.52;;;11.07;;
41739;SDS011;27422;52.444;13.300;2022-08-19T00:58:14;12.45;;;10.90;;
41739;SDS011;27422;52.444;13.300;2022-08-19T01:00:41;13.40;;;11.52;;
41739;SDS011;27422;52.444;13.300;2022-08-19T01:03:08;14.77;;;12.18;;
41739;SDS011;27422;52.444;13.300;2022-08-19T01:05:35;13.98;;;12.10;;
41739;SDS011;27422;52.444;13.300;2022-08-19T01:08:01;15.05;;;11.90;;
41739;SDS011;27422;52.444;13.300;2022-08-19T01:10:30;13.05;;;11.68;;
41739;SDS011;27422;52.444;13.300;2022-08-19T01:12:58;15.90;;;13.07;;
41739;SDS011;27422;52.444;13.300;2022-08-19T01:15:30;14.20;;;12.70;;
41739;SDS011;27422;52.444;13.300;2022-08-19T01:17:57;15.10;;;12.52;;
41739;SDS011;27422;52.444;13.300;2022-08-19T01:20:25;13.60;;;11.45;;
41739;SDS011;27422;52.444;13.300;2022-08-19T01:22:55;13.60;;;11.93;;
41739;SDS011;27422;52.444;13.300;2022-08-19T01:25:24;14.43;;;11.60;;
41739;SDS011;27422;52.444;13.300;2022-08-19T01:28:28;12.63;;;10.63;;
41739;SDS011;27422;52.444;13.300;2022-08-19T01:30:54;13.10;;;10.18;;
41739;SDS011;27422;52.444;13.300;2022-08-19T01:33:20;13.30;;;10.18;;
41739;SDS011;27422;52.444;13.300;2022-08-19T01:35:46;13.32;;;10.45;;
41739;SDS011;27422;52.444;13.300;2022-08-19T01:38:25;14.30;;;10.55;;
41739;SDS011;27422;52.444;13.300;2022-08-19T01:40:51;14.45;;;10.77;;
41739;SDS011;27422;52.444;13.300;2022-08-19T01:43:17;13.43;;;10.77;;
41739;SDS011;27422;52.444;13.300;2022-08-19T01:45:46;15.00;;;11.87;;
41739;SDS011;27422;52.444;13.300;2022-08-19T01:50:37;20.63;;;13.20;;
41739;SDS011;27422;52.444;13.300;2022-08-19T01:53:04;17.88;;;13.68;;
41739;SDS011;27422;52.444;13.300;2022-08-19T01:55:32;22.70;;;14.75;;
41739;SDS011;27422;52.444;13.300;2022-08-19T01:57:59;23.15;;;15.82;;
41739;SDS011;27422;52.444;13.300;2022-08-19T02:00:26;21.73;;;14.80;;
41739;SDS011;27422;52.444;13.300;2022-08-19T02:02:53;19.73;;;14.93;;
41739;SDS011;27422;52.444;13.300;2022-08-19T02:05:19;19.55;;;15.55;;
41739;SDS011;27422;52.444;13.300;2022-08-19T02:07:46;21.30;;;16.20;;
41739;SDS011;27422;52.444;13.300;2022-08-19T02:10:13;22.65;;;16.73;;
41739;SDS011;27422;52.444;13.300;2022-08-19T02:12:41;20.52;;;16.02;;
41739;SDS011;27422;52.444;13.300;2022-08-19T02:15:06;22.00;;;15.80;;
41739;SDS011;27422;52.444;13.300;2022-08-19T02:17:32;20.58;;;15.85;;
41739;SDS011;27422;52.444;13.300;2022-08-19T02:19:58;19.38;;;15.25;;
41739;SDS011;27422;52.444;13.300;2022-08-19T02:22:24;23.25;;;15.07;;
41739;SDS011;27422;52.444;13.300;2022-08-19T02:24:50;19.33;;;14.93;;
41739;SDS011;27422;52.444;13.300;2022-08-19T02:27:16;20.40;;;15.88;;
41739;SDS011;27422;52.444;13.300;2022-08-19T02:29:41;19.77;;;15.15;;
41739;SDS011;27422;52.444;13.300;2022-08-19T02:32:07;18.63;;;16.17;;
41739;SDS011;27422;52.444;13.300;2022-08-19T02:34:33;18.17;;;15.23;;
41739;SDS011;27422;52.444;13.300;2022-08-19T02:36:59;19.23;;;14.98;;
41739;SDS011;27422;52.444;13.300;2022-08-19T02:39:25;17.95;;;15.77;;
41739;SDS011;27422;52.444;13.300;2022-08-19T02:41:51;19.35;;;15.10;;
41739;SDS011;27422;52.444;13.300;2022-08-19T02:44:17;18.58;;;15.20;;
41739;SDS011;27422;52.444;13.300;2022-08-19T02:46:44;17.50;;;14.95;;
41739;SDS011;27422;52.444;13.300;2022-08-19T02:49:10;19.48;;;15.63;;
41739;SDS011;27422;52.444;13.300;2022-08-19T02:51:37;16.92;;;14.68;;
41739;SDS011;27422;52.444;13.300;2022-08-19T02:54:04;19.45;;;15.23;;
41739;SDS011;27422;52.444;13.300;2022-08-19T02:56:31;18.73;;;14.77;;
41739;SDS011;27422;52.444;13.300;2022-08-19T02:58:57;19.43;;;15.20;;
41739;SDS011;27422;52.444;13.300;2022-08-19T03:01:25;21.08;;;16.00;;
41739;SDS011;27422;52.444;13.300;2022-08-19T03:03:52;20.42;;;15.68;;
41739;SDS011;27422;52.444;13.300;2022-08-19T03:06:19;18.02;;;14.93;;
41739;SDS011;27422;52.444;13.300;2022-08-19T03:08:46;17.75;;;14.88;;
41739;SDS011;27422;52.444;13.300;2022-08-19T03:11:19;19.38;;;15.15;;
41739;SDS011;27422;52.444;13.300;2022-08-19T03:13:46;17.00;;;14.88;;
41739;SDS011;27422;52.444;13.300;2022-08-19T03:18:39;18.65;;;15.60;;
41739;SDS011;27422;52.444;13.300;2022-08-19T03:21:05;19.75;;;15.65;;
41739;SDS011;27422;52.444;13.300;2022-08-19T03:23:30;21.20;;;16.08;;
41739;SDS011;27422;52.444;13.300;2022-08-19T03:25:56;21.13;;;16.98;;
41739;SDS011;27422;52.444;13.300;2022-08-19T03:28:21;20.90;;;17.65;;
41739;SDS011;27422;52.444;13.300;2022-08-19T03:30:57;22.30;;;17.67;;
41739;SDS011;27422;52.444;13.300;2022-08-19T03:33:27;22.38;;;18.08;;
41739;SDS011;27422;52.444;13.300;2022-08-19T03:38:32;23.73;;;19.23;;
41739;SDS011;27422;52.444;13.300;2022-08-19T03:40:58;22.38;;;18.08;;
41739;SDS011;27422;52.444;13.300;2022-08-19T03:43:23;23.90;;;19.05;;
41739;SDS011;27422;52.444;13.300;2022-08-19T03:45:58;24.73;;;19.95;;
41739;SDS011;27422;52.444;13.300;2022-08-19T03:48:25;23.00;;;19.10;;
41739;SDS011;27422;52.444;13.300;2022-08-19T03:50:50;25.30;;;19.48;;
41739;SDS011;27422;52.444;13.300;2022-08-19T03:53:16;25.88;;;19.60;;
41739;SDS011;27422;52.444;13.300;2022-08-19T03:55:41;22.10;;;18.27;;
41739;SDS011;27422;52.444;13.300;2022-08-19T03:58:06;23.35;;;18.42;;
41739;SDS011;27422;52.444;13.300;2022-08-19T04:00:32;20.88;;;18.50;;
41739;SDS011;27422;52.444;13.300;2022-08-19T04:02:58;24.63;;;18.75;;
41739;SDS011;27422;52.444;13.300;2022-08-19T04:05:24;23.10;;;19.05;;
41739;SDS011;27422;52.444;13.300;2022-08-19T04:07:53;24.67;;;19.58;;
41739;SDS011;27422;52.444;13.300;2022-08-19T04:10:22;22.73;;;18.83;;
41739;SDS011;27422;52.444;13.300;2022-08-19T04:12:49;20.75;;;17.92;;
41739;SDS011;27422;52.444;13.300;2022-08-19T04:15:14;23.83;;;18.98;;
41739;SDS011;27422;52.444;13.300;2022-08-19T04:17:40;23.45;;;18.23;;
41739;SDS011;27422;52.444;13.300;2022-08-19T04:20:05;24.27;;;18.27;;
41739;SDS011;27422;52.444;13.300;2022-08-19T04:22:31;24.20;;;18.73;;
41739;SDS011;27422;52.444;13.300;2022-08-19T04:24:56;24.92;;;19.20;;
41739;SDS011;27422;52.444;13.300;2022-08-19T04:27:22;21.80;;;17.55;;
41739;SDS011;27422;52.444;13.300;2022-08-19T04:29:47;21.27;;;17.38;;
41739;SDS011;27422;52.444;13.300;2022-08-19T04:32:13;20.25;;;16.45;;
41739;SDS011;27422;52.444;13.300;2022-08-19T04:34:40;23.05;;;17.55;;
41739;SDS011;27422;52.444;13.300;2022-08-19T04:37:07;20.30;;;16.85;;
41739;SDS011;27422;52.444;13.300;2022-08-19T04:39:39;19.75;;;16.52;;
41739;SDS011;27422;52.444;13.300;2022-08-19T04:42:23;19.73;;;16.58;;
41739;SDS011;27422;52.444;13.300;2022-08-19T04:45:06;23.45;;;17.25;;
41739;SDS011;27422;52.444;13.300;2022-08-19T04:47:38;20.52;;;16.67;;
41739;SDS011;27422;52.444;13.300;2022-08-19T04:50:04;18.83;;;15.93;;
41739;SDS011;27422;52.444;13.300;2022-08-19T04:52:30;19.23;;;16.40;;
41739;SDS011;27422;52.444;13.300;2022-08-19T04:54:57;18.35;;;15.45;;
41739;SDS011;27422;52.444;13.300;2022-08-19T04:57:23;18.33;;;15.55;;
41739;SDS011;27422;52.444;13.300;2022-08-19T04:59:49;18.27;;;15.25;;
41739;SDS011;27422;52.444;13.300;2022-08-19T05:02:19;18.77;;;14.45;;
41739;SDS011;27422;52.444;13.300;2022-08-19T05:04:45;18.77;;;15.65;;
41739;SDS011;27422;52.444;13.300;2022-08-19T05:07:10;16.85;;;13.82;;
41739;SDS011;27422;52.444;13.300;2022-08-19T05:09:36;16.73;;;14.35;;
41739;SDS011;27422;52.444;13.300;2022-08-19T05:12:03;16.50;;;14.02;;
41739;SDS011;27422;52.444;13.300;2022-08-19T05:14:30;16.00;;;13.80;;
41739;SDS011;27422;52.444;13.300;2022-08-19T05:16:57;15.73;;;13.00;;
41739;SDS011;27422;52.444;13.300;2022-08-19T05:19:22;17.20;;;14.30;;
41739;SDS011;27422;52.444;13.300;2022-08-19T05:22:06;14.88;;;12.77;;
41739;SDS011;27422;52.444;13.300;2022-08-19T05:24:50;15.10;;;12.43;;
41739;SDS011;27422;52.444;13.300;2022-08-19T05:27:16;15.02;;;12.88;;
41739;SDS011;27422;52.444;13.300;2022-08-19T05:29:41;14.77;;;12.40;;
41739;SDS011;27422;52.444;13.300;2022-08-19T05:32:06;15.65;;;13.18;;
41739;SDS011;27422;52.444;13.300;2022-08-19T05:47:54;15.88;;;12.40;;
41739;SDS011;27422;52.444;13.300;2022-08-19T05:50:20;13.63;;;11.40;;
41739;SDS011;27422;52.444;13.300;2022-08-19T05:52:46;15.25;;;12.75;;
41739;SDS011;27422;52.444;13.300;2022-08-19T05:55:11;14.27;;;12.40;;
41739;SDS011;27422;52.444;13.300;2022-08-19T05:57:39;16.20;;;12.07;;
41739;SDS011;27422;52.444;13.300;2022-08-19T06:00:08;14.40;;;12.80;;
41739;SDS011;27422;52.444;13.300;2022-08-19T06:02:36;15.18;;;12.48;;
41739;SDS011;27422;52.444;13.300;2022-08-19T06:05:02;14.88;;;13.27;;
41739;SDS011;27422;52.444;13.300;2022-08-19T06:07:37;13.60;;;12.10;;
41739;SDS011;27422;52.444;13.300;2022-08-19T06:10:04;14.50;;;11.63;;
41739;SDS011;27422;52.444;13.300;2022-08-19T06:12:31;15.13;;;12.23;;
41739;SDS011;27422;52.444;13.300;2022-08-19T06:14:58;15.50;;;12.77;;
41739;SDS011;27422;52.444;13.300;2022-08-19T06:17:24;17.55;;;13.23;;
41739;SDS011;27422;52.444;13.300;2022-08-19T06:19:50;14.43;;;12.45;;
41739;SDS011;27422;52.444;13.300;2022-08-19T06:22:15;14.18;;;12.43;;
41739;SDS011;27422;52.444;13.300;2022-08-19T06:24:41;15.55;;;12.95;;
41739;SDS011;27422;52.444;13.300;2022-08-19T06:27:07;15.93;;;12.45;;
41739;SDS011;27422;52.444;13.300;2022-08-19T06:29:32;14.82;;;13.27;;
41739;SDS011;27422;52.444;13.300;2022-08-19T06:32:01;17.42;;;13.35;;
41739;SDS011;27422;52.444;13.300;2022-08-19T06:34:29;14.45;;;12.80;;
41739;SDS011;27422;52.444;13.300;2022-08-19T06:36:57;16.08;;;12.88;;
41739;SDS011;27422;52.444;13.300;2022-08-19T06:39:27;14.48;;;12.98;;
41739;SDS011;27422;52.444;13.300;2022-08-19T06:41:55;17.20;;;13.18;;
41739;SDS011;27422;52.444;13.300;2022-08-19T06:44:23;15.40;;;12.18;;
41739;SDS011;27422;52.444;13.300;2022-08-19T06:46:50;15.80;;;13.45;;
41739;SDS011;27422;52.444;13.300;2022-08-19T06:49:16;14.15;;;12.57;;
41739;SDS011;27422;52.444;13.300;2022-08-19T06:51:42;16.23;;;13.48;;
41739;SDS011;27422;52.444;13.300;2022-08-19T06:54:09;15.40;;;12.93;;
41739;SDS011;27422;52.444;13.300;2022-08-19T06:56:36;18.85;;;14.70;;
41739;SDS011;27422;52.444;13.300;2022-08-19T06:59:21;15.45;;;13.07;;
41739;SDS011;27422;52.444;13.300;2022-08-19T07:01:48;16.23;;;13.02;;
41739;SDS011;27422;52.444;13.300;2022-08-19T07:04:17;16.92;;;13.02;;
41739;SDS011;27422;52.444;13.300;2022-08-19T07:06:43;16.42;;;13.00;;
41739;SDS011;27422;52.444;13.300;2022-08-19T07:09:09;15.73;;;12.63;;
41739;SDS011;27422;52.444;13.300;2022-08-19T07:11:35;14.63;;;12.57;;
41739;SDS011;27422;52.444;13.300;2022-08-19T07:14:01;14.80;;;12.65;;
41739;SDS011;27422;52.444;13.300;2022-08-19T07:16:27;15.82;;;13.20;;
41739;SDS011;27422;52.444;13.300;2022-08-19T07:18:56;14.25;;;12.10;;
41739;SDS011;27422;52.444;13.300;2022-08-19T07:21:26;14.10;;;11.55;;
41739;SDS011;27422;52.444;13.300;2022-08-19T07:23:55;12.70;;;11.40;;
41739;SDS011;27422;52.444;13.300;2022-08-19T07:26:24;13.07;;;11.67;;
41739;SDS011;27422;52.444;13.300;2022-08-19T07:28:51;16.60;;;12.30;;
41739;SDS011;27422;52.444;13.300;2022-08-19T07:31:18;12.48;;;10.88;;
41739;SDS011;27422;52.444;13.300;2022-08-19T07:33:46;13.75;;;11.30;;
41739;SDS011;27422;52.444;13.300;2022-08-19T07:36:13;12.90;;;11.55;;
41739;SDS011;27422;52.444;13.300;2022-08-19T07:38:40;15.23;;;11.75;;
41739;SDS011;27422;52.444;13.300;2022-08-19T07:41:07;13.43;;;11.60;;
41739;SDS011;27422;52.444;13.300;2022-08-19T07:43:34;13.45;;;11.93;;
41739;SDS011;27422;52.444;13.300;2022-08-19T07:45:59;14.98;;;12.27;;
41739;SDS011;27422;52.444;13.300;2022-08-19T07:48:25;15.85;;;11.73;;
41739;SDS011;27422;52.444;13.300;2022-08-19T07:50:55;13.25;;;11.85;;
41739;SDS011;27422;52.444;13.300;2022-08-19T07:53:23;13.65;;;11.90;;
41739;SDS011;27422;52.444;13.300;2022-08-19T07:55:49;15.23;;;11.98;;
41739;SDS011;27422;52.444;13.300;2022-08-19T07:58:15;15.52;;;12.40;;
41739;SDS011;27422;52.444;13.300;2022-08-19T08:00:42;16.38;;;13.38;;
41739;SDS011;27422;52.444;13.300;2022-08-19T08:03:09;14.88;;;13.10;;
41739;SDS011;27422;52.444;13.300;2022-08-19T08:05:34;15.35;;;13.45;;
41739;SDS011;27422;52.444;13.300;2022-08-19T08:08:18;17.65;;;14.15;;
41739;SDS011;27422;52.444;13.300;2022-08-19T08:11:03;16.38;;;14.35;;
41739;SDS011;27422;52.444;13.300;2022-08-19T08:13:29;15.82;;;14.13;;
41739;SDS011;27422;52.444;13.300;2022-08-19T08:15:55;15.50;;;13.88;;
41739;SDS011;27422;52.444;13.300;2022-08-19T08:18:22;16.38;;;13.73;;
41739;SDS011;27422;52.444;13.300;2022-08-19T08:20:48;17.25;;;14.82;;
41739;SDS011;27422;52.444;13.300;2022-08-19T08:23:16;17.98;;;14.20;;
41739;SDS011;27422;52.444;13.300;2022-08-19T08:25:49;15.15;;;13.43;;
41739;SDS011;27422;52.444;13.300;2022-08-19T08:28:15;17.83;;;14.02;;
41739;SDS011;27422;52.444;13.300;2022-08-19T08:30:42;15.38;;;13.23;;
41739;SDS011;27422;52.444;13.300;2022-08-19T08:33:08;14.85;;;13.25;;
41739;SDS011;27422;52.444;13.300;2022-08-19T08:35:34;16.05;;;14.35;;
41739;SDS011;27422;52.444;13.300;2022-08-19T08:38:00;17.33;;;13.93;;
41739;SDS011;27422;52.444;13.300;2022-08-19T08:46:15;17.35;;;14.63;;
41739;SDS011;27422;52.444;13.300;2022-08-19T08:48:56;16.33;;;13.88;;
41739;SDS011;27422;52.444;13.300;2022-08-19T08:51:37;17.98;;;14.13;;
41739;SDS011;27422;52.444;13.300;2022-08-19T08:54:07;16.92;;;14.50;;
41739;SDS011;27422;52.444;13.300;2022-08-19T08:56:38;17.08;;;14.27;;
41739;SDS011;27422;52.444;13.300;2022-08-19T08:59:07;17.67;;;14.35;;
41739;SDS011;27422;52.444;13.300;2022-08-19T09:01:57;16.60;;;14.82;;
41739;SDS011;27422;52.444;13.300;2022-08-19T09:04:23;18.10;;;14.52;;
41739;SDS011;27422;52.444;13.300;2022-08-19T09:06:59;16.90;;;15.05;;
41739;SDS011;27422;52.444;13.300;2022-08-19T09:09:34;16.17;;;14.57;;
41739;SDS011;27422;52.444;13.300;2022-08-19T09:17:29;21.08;;;14.73;;
41739;SDS011;27422;52.444;13.300;2022-08-19T09:22:32;16.60;;;13.60;;
41739;SDS011;27422;52.444;13.300;2022-08-19T09:25:05;15.73;;;13.07;;
41739;SDS011;27422;52.444;13.300;2022-08-19T09:28:10;14.80;;;13.10;;
41739;SDS011;27422;52.444;13.300;2022-08-19T09:30:40;15.32;;;13.65;;
41739;SDS011;27422;52.444;13.300;2022-08-19T09:33:11;13.95;;;12.52;;
41739;SDS011;27422;52.444;13.300;2022-08-19T09:35:40;14.48;;;12.98;;
41739;SDS011;27422;52.444;13.300;2022-08-19T09:38:07;13.77;;;12.38;;
41739;SDS011;27422;52.444;13.300;2022-08-19T09:40:33;14.27;;;12.88;;
41739;SDS011;27422;52.444;13.300;2022-08-19T09:42:59;14.02;;;12.50;;
41739;SDS011;27422;52.444;13.300;2022-08-19T09:45:27;13.13;;;11.73;;
41739;SDS011;27422;52.444;13.300;2022-08-19T09:47:53;14.25;;;12.57;;
41739;SDS011;27422;52.444;13.300;2022-08-19T09:50:19;13.52;;;12.10;;
41739;SDS011;27422;52.444;13.300;2022-08-19T09:52:48;14.18;;;12.27;;
41739;SDS011;27422;52.444;13.300;2022-08-19T09:55:17;13.50;;;12.10;;
41739;SDS011;27422;52.444;13.300;2022-08-19T09:57:42;13.52;;;12.18;;
41739;SDS011;27422;52.444;13.300;2022-08-19T10:00:08;13.15;;;11.50;;
41739;SDS011;27422;52.444;13.300;2022-08-19T10:02:37;13.20;;;11.60;;
41739;SDS011;27422;52.444;13.300;2022-08-19T10:05:05;12.93;;;10.93;;
41739;SDS011;27422;52.444;13.300;2022-08-19T10:07:50;12.57;;;10.93;;
41739;SDS011;27422;52.444;13.300;2022-08-19T10:10:15;12.20;;;10.90;;
41739;SDS011;27422;52.444;13.300;2022-08-19T10:12:41;13.30;;;11.02;;
41739;SDS011;27422;52.444;13.300;2022-08-19T10:15:07;12.83;;;11.50;;
41739;SDS011;27422;52.444;13.300;2022-08-19T10:17:33;12.02;;;10.57;;
41739;SDS011;27422;52.444;13.300;2022-08-19T10:20:00;12.15;;;10.75;;
41739;SDS011;27422;52.444;13.300;2022-08-19T10:22:27;12.90;;;10.18;;
41739;SDS011;27422;52.444;13.300;2022-08-19T10:24:53;13.10;;;11.52;;
41739;SDS011;27422;52.444;13.300;2022-08-19T10:27:18;13.13;;;10.85;;
41739;SDS011;27422;52.444;13.300;2022-08-19T10:29:44;12.05;;;10.60;;
41739;SDS011;27422;52.444;13.300;2022-08-19T10:32:09;11.82;;;9.95;;
41739;SDS011;27422;52.444;13.300;2022-08-19T10:34:36;12.40;;;10.93;;
41739;SDS011;27422;52.444;13.300;2022-08-19T10:37:03;12.38;;;10.40;;
41739;SDS011;27422;52.444;13.300;2022-08-19T10:39:31;12.02;;;10.57;;
41739;SDS011;27422;52.444;13.300;2022-08-19T10:41:58;13.23;;;10.35;;
41739;SDS011;27422;52.444;13.300;2022-08-19T10:44:23;12.02;;;10.43;;
41739;SDS011;27422;52.444;13.300;2022-08-19T10:46:49;13.07;;;10.48;;
41739;SDS011;27422;52.444;13.300;2022-08-19T10:49:14;11.70;;;10.05;;
41739;SDS011;27422;52.444;13.300;2022-08-19T10:51:40;11.75;;;10.00;;
41739;SDS011;27422;52.444;13.300;2022-08-19T10:54:24;13.10;;;10.68;;
41739;SDS011;27422;52.444;13.300;2022-08-19T10:57:09;11.25;;;10.02;;
41739;SDS011;27422;52.444;13.300;2022-08-19T10:59:38;11.80;;;10.00;;
41739;SDS011;27422;52.444;13.300;2022-08-19T11:02:04;11.93;;;10.02;;
41739;SDS011;27422;52.444;13.300;2022-08-19T11:06:57;11.88;;;10.48;;
41739;SDS011;27422;52.444;13.300;2022-08-19T11:09:23;13.13;;;10.10;;
41739;SDS011;27422;52.444;13.300;2022-08-19T11:11:50;12.43;;;10.88;;
41739;SDS011;27422;52.444;13.300;2022-08-19T11:14:17;12.10;;;10.68;;
41739;SDS011;27422;52.444;13.300;2022-08-19T11:16:46;12.15;;;10.77;;
41739;SDS011;27422;52.444;13.300;2022-08-19T11:19:13;12.35;;;10.32;;
41739;SDS011;27422;52.444;13.300;2022-08-19T11:21:41;11.95;;;10.38;;
41739;SDS011;27422;52.444;13.300;2022-08-19T11:24:09;12.95;;;10.73;;
41739;SDS011;27422;52.444;13.300;2022-08-19T11:26:36;12.48;;;10.30;;
41739;SDS011;27422;52.444;13.300;2022-08-19T11:29:03;11.18;;;9.75;;
41739;SDS011;27422;52.444;13.300;2022-08-19T11:31:31;11.88;;;10.00;;
41739;SDS011;27422;52.444;13.300;2022-08-19T11:34:02;12.13;;;9.90;;
41739;SDS011;27422;52.444;13.300;2022-08-19T11:36:29;13.05;;;9.88;;
41739;SDS011;27422;52.444;13.300;2022-08-19T11:38:56;10.30;;;9.18;;
41739;SDS011;27422;52.444;13.300;2022-08-19T11:41:22;11.95;;;8.90;;
41739;SDS011;27422;52.444;13.300;2022-08-19T11:43:48;13.57;;;8.75;;
41739;SDS011;27422;52.444;13.300;2022-08-19T11:46:15;12.15;;;8.95;;
41739;SDS011;27422;52.444;13.300;2022-08-19T11:48:40;11.15;;;8.75;;
41739;SDS011;27422;52.444;13.300;2022-08-19T11:51:13;10.73;;;8.80;;
41739;SDS011;27422;52.444;13.300;2022-08-19T11:53:40;10.07;;;8.57;;
41739;SDS011;27422;52.444;13.300;2022-08-19T11:56:06;10.40;;;8.48;;
41739;SDS011;27422;52.444;13.300;2022-08-19T11:58:33;9.82;;;8.57;;
41739;SDS011;27422;52.444;13.300;2022-08-19T12:00:59;11.02;;;8.23;;
41739;SDS011;27422;52.444;13.300;2022-08-19T12:03:24;9.13;;;7.88;;
41739;SDS011;27422;52.444;13.300;2022-08-19T12:05:50;9.00;;;8.10;;
41739;SDS011;27422;52.444;13.300;2022-08-19T12:08:16;10.02;;;8.32;;
41739;SDS011;27422;52.444;13.300;2022-08-19T12:10:42;8.82;;;7.68;;
41739;SDS011;27422;52.444;13.300;2022-08-19T12:13:09;10.35;;;8.38;;
41739;SDS011;27422;52.444;13.300;2022-08-19T12:15:36;10.43;;;7.72;;
41739;SDS011;27422;52.444;13.300;2022-08-19T12:18:02;10.07;;;7.63;;
41739;SDS011;27422;52.444;13.300;2022-08-19T12:20:28;9.85;;;7.53;;
41739;SDS011;27422;52.444;13.300;2022-08-19T12:22:54;9.02;;;7.78;;
41739;SDS011;27422;52.444;13.300;2022-08-19T12:25:19;10.43;;;7.50;;
41739;SDS011;27422;52.444;13.300;2022-08-19T12:27:45;9.77;;;7.60;;
41739;SDS011;27422;52.444;13.300;2022-08-19T12:30:11;8.70;;;6.82;;
41739;SDS011;27422;52.444;13.300;2022-08-19T12:32:40;8.10;;;7.20;;
41739;SDS011;27422;52.444;13.300;2022-08-19T12:37:31;9.60;;;6.95;;
41739;SDS011;27422;52.444;13.300;2022-08-19T12:39:57;9.57;;;7.22;;
41739;SDS011;27422;52.444;13.300;2022-08-19T12:42:23;13.65;;;7.28;;
41739;SDS011;27422;52.444;13.300;2022-08-19T12:44:48;9.32;;;6.80;;
41739;SDS011;27422;52.444;13.300;2022-08-19T12:47:14;8.70;;;6.75;;
41739;SDS011;27422;52.444;13.300;2022-08-19T12:49:39;8.20;;;6.70;;
41739;SDS011;27422;52.444;13.300;2022-08-19T12:52:06;9.25;;;6.72;;
41739;SDS011;27422;52.444;13.300;2022-08-19T12:54:33;8.05;;;5.93;;
41739;SDS011;27422;52.444;13.300;2022-08-19T12:56:59;7.72;;;6.68;;
41739;SDS011;27422;52.444;13.300;2022-08-19T12:59:25;8.85;;;6.10;;
41739;SDS011;27422;52.444;13.300;2022-08-19T13:01:51;7.10;;;6.07;;
41739;SDS011;27422;52.444;13.300;2022-08-19T13:04:16;7.97;;;6.10;;
41739;SDS011;27422;52.444;13.300;2022-08-19T13:06:42;8.35;;;5.95;;
41739;SDS011;27422;52.444;13.300;2022-08-19T13:09:07;8.20;;;6.20;;
41739;SDS011;27422;52.444;13.300;2022-08-19T13:11:33;7.68;;;6.13;;
41739;SDS011;27422;52.444;13.300;2022-08-19T13:14:00;8.45;;;6.10;;
41739;SDS011;27422;52.444;13.300;2022-08-19T13:16:26;9.45;;;6.35;;
41739;SDS011;27422;52.444;13.300;2022-08-19T13:18:52;6.88;;;5.95;;
41739;SDS011;27422;52.444;13.300;2022-08-19T13:21:19;7.50;;;6.50;;
41739;SDS011;27422;52.444;13.300;2022-08-19T13:23:48;8.70;;;7.03;;
41739;SDS011;27422;52.444;13.300;2022-08-19T13:26:13;8.43;;;7.20;;
41739;SDS011;27422;52.444;13.300;2022-08-19T13:28:40;7.80;;;6.90;;
41739;SDS011;27422;52.444;13.300;2022-08-19T13:31:25;9.07;;;6.68;;
41739;SDS011;27422;52.444;13.300;2022-08-19T13:34:10;9.38;;;7.60;;
41739;SDS011;27422;52.444;13.300;2022-08-19T13:36:36;10.43;;;7.68;;
41739;SDS011;27422;52.444;13.300;2022-08-19T13:39:02;9.02;;;7.10;;
41739;SDS011;27422;52.444;13.300;2022-08-19T13:41:28;8.05;;;7.25;;
41739;SDS011;27422;52.444;13.300;2022-08-19T13:43:54;9.30;;;7.68;;
41739;SDS011;27422;52.444;13.300;2022-08-19T13:46:22;7.95;;;7.15;;
41739;SDS011;27422;52.444;13.300;2022-08-19T13:48:48;7.53;;;6.63;;
41739;SDS011;27422;52.444;13.300;2022-08-19T13:51:14;7.63;;;6.55;;
41739;SDS011;27422;52.444;13.300;2022-08-19T13:56:08;7.30;;;6.22;;
41739;SDS011;27422;52.444;13.300;2022-08-19T13:58:35;9.10;;;6.50;;
41739;SDS011;27422;52.444;13.300;2022-08-19T14:01:01;8.27;;;6.35;;
41739;SDS011;27422;52.444;13.300;2022-08-19T14:03:28;9.23;;;6.18;;
41739;SDS011;27422;52.444;13.300;2022-08-19T14:05:53;8.07;;;6.50;;
41739;SDS011;27422;52.444;13.300;2022-08-19T14:08:19;7.60;;;6.20;;
41739;SDS011;27422;52.444;13.300;2022-08-19T14:10:47;6.80;;;6.00;;
41739;SDS011;27422;52.444;13.300;2022-08-19T14:13:21;8.68;;;6.45;;
41739;SDS011;27422;52.444;13.300;2022-08-19T14:15:56;8.27;;;6.50;;
41739;SDS011;27422;52.444;13.300;2022-08-19T14:18:22;7.75;;;6.38;;
41739;SDS011;27422;52.444;13.300;2022-08-19T14:20:51;8.35;;;6.35;;
41739;SDS011;27422;52.444;13.300;2022-08-19T14:23:17;8.60;;;6.70;;
41739;SDS011;27422;52.444;13.300;2022-08-19T14:25:43;8.48;;;7.13;;
41739;SDS011;27422;52.444;13.300;2022-08-19T14:28:09;9.18;;;6.32;;
41739;SDS011;27422;52.444;13.300;2022-08-19T14:30:35;9.18;;;6.65;;
41739;SDS011;27422;52.444;13.300;2022-08-19T14:33:03;8.35;;;6.45;;
41739;SDS011;27422;52.444;13.300;2022-08-19T14:35:29;7.53;;;6.30;;
41739;SDS011;27422;52.444;13.300;2022-08-19T14:37:59;8.63;;;6.60;;
41739;SDS011;27422;52.444;13.300;2022-08-19T14:40:25;7.72;;;6.60;;
41739;SDS011;27422;52.444;13.300;2022-08-19T14:42:52;8.27;;;6.78;;
41739;SDS011;27422;52.444;13.300;2022-08-19T14:45:20;8.25;;;6.22;;
41739;SDS011;27422;52.444;13.300;2022-08-19T14:47:46;8.45;;;6.63;;
41739;SDS011;27422;52.444;13.300;2022-08-19T14:50:11;7.32;;;6.35;;
41739;SDS011;27422;52.444;13.300;2022-08-19T14:52:37;9.50;;;6.60;;
41739;SDS011;27422;52.444;13.300;2022-08-19T14:55:07;7.57;;;6.78;;
41739;SDS011;27422;52.444;13.300;2022-08-19T14:57:33;8.30;;;6.45;;
41739;SDS011;27422;52.444;13.300;2022-08-19T14:59:58;8.93;;;6.47;;
41739;SDS011;27422;52.444;13.300;2022-08-19T15:02:25;7.88;;;6.55;;